Missouri City, Texas
Current Conditions -  °F | °C
As of 11:53 AM on Monday 22 Dec 2014 (Local Time) from KSGR Reporting Station
Scattered Clouds Scattered Clouds  
Wind Chill: 71°   Ceiling: Unl
Heat Index: 71°   Visibility: 10mi
Dew Point: 60°   Wind: 14mph
Humidity: 68%   Direction: 220°SW
Pressure: 29.71"   Gusts: NA
Location:  29.61°N, 95.53°W
Report Text: KSGR 221753Z 22012KT 10SM SCT024 22/16 A2971 RMK AO2 SLP062 T02170156 10217 20133 58017
Loading
Personal Weather Stations






























Interactive Weather Map New forecast layout! Learn more

10-Day Weather Forecast

Advertisements
Track Severe Weather on mobile